Time;durP1;ratioP1;P1;durP2;ratioP2;P2;SDS_P1;SDS_P2;PMS_P1;PMS_P2;Temp;Humidity;BMP_temperature;BMP_pressure;BME280_temperature;BME280_humidity;BME280_pressure;Samples;Min_cycle;Max_cycle;Signal;HPM_P1;HPM_P2
2021/07/12 00:00:33;;;;;;;2.37;2.03;;;24.70;59.10;;;;;;6082307;23;20591;-90
2021/07/12 00:03:07;;;;;;;2.30;2.10;;;24.70;59.10;;;;;;6068606;23;20388;-90
2021/07/12 00:05:40;;;;;;;2.27;1.97;;;24.70;59.10;;;;;;6167885;22;20392;-90
2021/07/12 00:08:16;;;;;;;2.10;1.90;;;24.70;59.00;;;;;;6168421;22;20416;-90
2021/07/12 00:10:43;;;;;;;1.73;1.63;;;24.70;59.10;;;;;;6172593;22;20426;-90
2021/07/12 00:13:24;;;;;;;2.20;2.00;;;24.70;59.10;;;;;;6297108;22;20384;-90
2021/07/12 00:16:04;;;;;;;1.97;1.80;;;24.80;59.10;;;;;;6296373;22;20413;-90
2021/07/12 00:18:32;;;;;;;2.17;1.97;;;24.80;59.10;;;;;;6296795;22;20381;-90
2021/07/12 00:21:07;;;;;;;2.90;1.90;;;24.80;59.10;;;;;;6296491;22;20437;-90
2021/07/12 00:23:33;;;;;;;2.80;2.13;;;24.80;59.10;;;;;;6295699;22;20407;-85
2021/07/12 00:26:19;;;;;;;;;;;;;;;;;;;;;
2021/07/12 00:29:10;;;;;;;1.90;1.53;;;24.80;59.00;;;;;;6321903;22;20430;-85
2021/07/12 00:32:04;;;;;;;1.90;1.60;;;24.80;59.00;;;;;;6322248;22;20364;-85
2021/07/12 00:34:51;;;;;;;1.67;1.57;;;24.90;59.10;;;;;;6293048;22;20390;-85
2021/07/12 00:37:21;;;;;;;2.60;1.90;;;24.90;59.10;;;;;;6294744;22;20444;-84
2021/07/12 00:39:55;;;;;;;2.13;1.70;;;24.80;59.00;;;;;;6295068;22;20379;-84
2021/07/12 00:42:48;;;;;;;1.77;1.60;;;24.90;59.10;;;;;;6294856;22;20402;-85
2021/07/12 00:45:26;;;;;;;2.43;1.97;;;24.90;59.00;;;;;;6293453;22;20376;-85
2021/07/12 00:48:16;;;;;;;2.50;2.00;;;24.90;59.10;;;;;;6294322;22;20457;-85
2021/07/12 00:50:54;;;;;;;2.93;1.63;;;24.90;59.10;;;;;;6320975;22;20375;-85
2021/07/12 00:53:20;;;;;;;1.93;1.73;;;24.80;59.00;;;;;;6295004;22;20392;-85
2021/07/12 00:56:17;;;;;;;2.43;2.23;;;24.90;59.60;;;;;;6294072;22;20372;-85
2021/07/12 00:58:51;;;;;;;3.83;1.90;;;24.90;59.00;;;;;;6289829;22;20382;-84
2021/07/12 01:01:35;;;;;;;2.40;2.20;;;24.90;59.10;;;;;;6321460;22;20375;-85
2021/07/12 01:04:19;;;;;;;1.90;1.80;;;24.90;59.10;;;;;;6293329;22;20379;-86
2021/07/12 01:07:00;;;;;;;;;;;;;;;;;;;;;
2021/07/12 01:09:50;;;;;;;;;;;;;;;;;;;;;
2021/07/12 01:12:42;;;;;;;2.37;2.10;;;24.90;59.00;;;;;;6321816;22;20440;-86
2021/07/12 01:15:27;;;;;;;1.97;1.80;;;24.90;59.00;;;;;;6324832;22;20412;-90
2021/07/12 01:18:33;;;;;;;2.30;2.00;;;24.80;58.90;;;;;;6301716;22;20375;-91
2021/07/12 01:21:49;;;;;;;;;;;;;;;;;;;;;
2021/07/12 01:24:46;;;;;;;2.13;1.70;;;24.80;58.90;;;;;;6328438;22;20689;-91
2021/07/12 01:27:51;;;;;;;1.90;1.60;;;24.80;58.90;;;;;;6300200;22;20442;-90
2021/07/12 01:30:34;;;;;;;;;;;;;;;;;;;;;
2021/07/12 01:33:33;;;;;;;2.07;1.80;;;24.80;59.00;;;;;;6328818;22;20356;-90
2021/07/12 01:39:50;;;;;;;1.73;1.63;;;24.80;58.90;;;;;;6315477;22;20390;-90
2021/07/12 01:42:55;;;;;;;2.00;1.70;;;24.80;59.00;;;;;;6279733;22;20391;-90
2021/07/12 01:45:35;;;;;;;1.63;1.50;;;24.80;58.90;;;;;;6318616;22;20371;-89
2021/07/12 01:48:24;;;;;;;1.90;1.80;;;24.80;58.90;;;;;;6302766;22;20406;-90
2021/07/12 01:51:00;;;;;;;;;;;;;;;;;;;;;
2021/07/12 01:54:06;;;;;;;2.00;1.77;;;24.70;58.80;;;;;;6329068;22;20352;-90
2021/07/12 01:56:57;;;;;;;1.83;1.73;;;24.70;58.80;;;;;;6301942;22;20375;-90
2021/07/12 02:00:16;;;;;;;2.00;1.80;;;24.70;58.80;;;;;;6299962;22;20463;-91
2021/07/12 02:02:57;;;;;;;;;;;;;;;;;;;;;
2021/07/12 02:05:33;;;;;;;1.80;1.53;;;24.70;58.80;;;;;;6329979;22;20351;-91
2021/07/12 02:08:01;;;;;;;2.10;1.90;;;24.70;58.80;;;;;;6301696;22;20452;-87
2021/07/12 02:10:32;;;;;;;2.10;1.90;;;24.70;58.80;;;;;;6294782;22;20841;-86
2021/07/12 02:13:02;;;;;;;1.83;1.50;;;24.70;58.80;;;;;;6294560;22;20392;-86
2021/07/12 02:15:54;;;;;;;;;;;;;;;;;;;;;
2021/07/12 02:18:37;;;;;;;2.10;1.70;;;24.70;58.80;;;;;;6329415;22;20363;-90
2021/07/12 02:21:09;;;;;;;2.00;1.80;;;24.70;58.70;;;;;;6328081;22;20383;-91
2021/07/12 02:27:07;;;;;;;2.30;2.00;;;24.70;58.70;;;;;;6204626;23;20457;-91
2021/07/12 02:32:55;;;;;;;1.60;1.50;;;24.70;58.80;;;;;;6325616;22;20375;-91
2021/07/12 02:35:57;;;;;;;;;;;;;;;;;;;;;
2021/07/12 02:38:33;;;;;;;1.60;1.50;;;24.70;58.70;;;;;;6329128;22;20347;-91
2021/07/12 02:41:11;;;;;;;2.67;2.17;;;24.60;58.70;;;;;;6301677;22;20382;-91
2021/07/12 02:43:48;;;;;;;2.00;1.80;;;24.60;58.70;;;;;;6303076;22;20399;-91
2021/07/12 02:46:37;;;;;;;1.50;1.27;;;24.70;58.90;;;;;;6304293;22;20382;-91
2021/07/12 02:49:28;;;;;;;2.37;2.10;;;24.70;58.80;;;;;;6303198;22;20411;-91
2021/07/12 02:52:23;;;;;;;1.70;1.60;;;24.60;58.80;;;;;;6329993;22;20359;-91
2021/07/12 02:55:02;;;;;;;3.23;2.20;;;24.60;58.80;;;;;;6329442;22;20368;-91
2021/07/12 02:57:39;;;;;;;2.37;1.90;;;24.60;58.80;;;;;;6303111;22;20375;-91
2021/07/12 03:00:31;;;;;;;2.60;1.60;;;24.60;58.90;;;;;;6303263;22;20470;-91
2021/07/12 03:12:13;;;;;;;2.10;1.87;;;24.60;59.10;;;;;;6327751;22;20418;-90
2021/07/12 03:15:03;;;;;;;1.63;1.53;;;24.60;59.00;;;;;;6301007;22;20376;-91
2021/07/12 03:17:49;;;;;;;1.70;1.47;;;24.60;59.00;;;;;;6299798;22;20438;-91
2021/07/12 03:20:22;;;;;;;2.70;2.03;;;24.60;59.10;;;;;;6300703;22;20380;-90
2021/07/12 03:23:05;;;;;;;3.00;2.00;;;24.60;59.20;;;;;;6300815;22;20800;-91
2021/07/12 03:25:50;;;;;;;2.50;2.17;;;24.60;59.10;;;;;;6327327;22;20424;-90
2021/07/12 03:28:22;;;;;;;1.90;1.67;;;24.60;59.20;;;;;;6300614;22;20411;-91
2021/07/12 03:30:53;;;;;;;2.00;1.80;;;24.60;59.20;;;;;;6300800;22;20382;-90
2021/07/12 03:33:37;;;;;;;2.33;1.70;;;24.60;59.20;;;;;;6297962;22;20383;-90
2021/07/12 03:36:15;;;;;;;;;;;;;;;;;;;;;
2021/07/12 03:38:48;;;;;;;1.93;1.73;;;24.60;59.10;;;;;;6329660;22;20359;-90
2021/07/12 03:41:40;;;;;;;2.00;1.80;;;24.60;59.20;;;;;;6302386;22;20363;-90
2021/07/12 03:44:12;;;;;;;1.90;1.50;;;24.60;59.20;;;;;;6300788;22;20379;-90
2021/07/12 03:46:45;;;;;;;1.60;1.50;;;24.60;59.30;;;;;;6294424;22;20462;-88
2021/07/12 03:49:23;;;;;;;1.70;1.50;;;24.60;59.30;;;;;;6293210;22;20383;-88
2021/07/12 03:58:30;;;;;;;;;;;;;;;;;;;;;
2021/07/12 04:01:18;;;;;;;1.97;1.70;;;24.50;59.30;;;;;;6257545;23;20416;-89
2021/07/12 04:04:01;;;;;;;2.30;1.67;;;24.60;59.40;;;;;;6231396;23;20382;-90
2021/07/12 04:06:30;;;;;;;2.03;1.70;;;24.60;59.30;;;;;;6231064;23;20381;-88
2021/07/12 04:09:03;;;;;;;1.80;1.40;;;24.50;59.30;;;;;;6231686;23;20381;-89
2021/07/12 04:11:35;;;;;;;1.57;1.47;;;24.60;59.20;;;;;;6230116;23;20483;-89
2021/07/12 04:14:04;;;;;;;2.03;1.60;;;24.50;59.20;;;;;;6231029;23;20369;-89
2021/07/12 04:16:36;;;;;;;1.87;1.77;;;24.50;59.20;;;;;;6231420;23;20401;-90
2021/07/12 04:19:07;;;;;;;2.00;1.60;;;24.50;59.20;;;;;;6231360;23;20377;-88
2021/07/12 04:21:37;;;;;;;1.97;1.50;;;24.60;59.30;;;;;;6232142;23;20460;-89
2021/07/12 04:24:29;;;;;;;1.50;1.40;;;24.50;59.20;;;;;;6232383;23;20385;-85
2021/07/12 04:27:10;;;;;;;3.10;1.40;;;24.60;59.20;;;;;;6231887;23;20425;-86
2021/07/12 04:30:07;;;;;;;2.07;1.60;;;24.50;59.00;;;;;;6231892;23;20380;-86
2021/07/12 04:33:11;;;;;;;1.73;1.50;;;24.60;59.00;;;;;;6231044;23;20381;-88
2021/07/12 04:36:27;;;;;;;;;;;;;;;;;;;;;
2021/07/12 04:38:59;;;;;;;1.60;1.33;;;24.60;58.90;;;;;;6176993;23;20399;-86
2021/07/12 04:45:45;;;;;;;1.77;1.67;;;24.60;58.90;;;;;;6141114;23;20424;-86
2021/07/12 04:48:21;;;;;;;1.80;1.33;;;24.60;58.90;;;;;;6118362;23;20802;-86
2021/07/12 04:50:57;;;;;;;1.90;1.70;;;24.60;58.80;;;;;;6094442;23;20388;-86
2021/07/12 04:53:45;;;;;;;1.60;1.50;;;24.60;58.80;;;;;;6117060;23;20388;-86
2021/07/12 04:56:23;;;;;;;1.77;1.50;;;24.60;58.80;;;;;;6141767;23;20377;-86
2021/07/12 04:59:12;;;;;;;1.60;1.50;;;24.60;58.80;;;;;;6113715;23;20377;-86
2021/07/12 05:01:47;;;;;;;2.13;1.73;;;24.60;58.80;;;;;;6116897;23;20391;-85
2021/07/12 05:04:15;;;;;;;2.07;1.80;;;24.60;58.80;;;;;;6116621;23;20749;-84
2021/07/12 05:07:10;;;;;;;;;;;;;;;;;;;;;
2021/07/12 05:16:33;;;;;;;2.47;1.70;;;24.60;58.70;;;;;;6113246;23;20472;-86
2021/07/12 05:19:06;;;;;;;1.90;1.70;;;24.60;58.80;;;;;;6115137;23;20433;-84
2021/07/12 05:21:37;;;;;;;1.67;1.50;;;24.60;58.80;;;;;;6136715;23;20382;-84
2021/07/12 05:24:09;;;;;;;2.00;1.77;;;24.60;58.80;;;;;;6178848;23;20411;-85
2021/07/12 05:26:39;;;;;;;1.90;1.80;;;24.70;58.70;;;;;;6178943;23;20387;-85
2021/07/12 05:31:57;;;;;;;1.40;1.30;;;24.70;58.70;;;;;;6205636;23;20386;-85
2021/07/12 05:34:33;;;;;;;1.57;1.40;;;24.70;58.70;;;;;;6205994;23;20370;-85
2021/07/12 05:37:00;;;;;;;1.50;1.33;;;24.70;58.70;;;;;;6178351;23;20390;-85
2021/07/12 05:39:33;;;;;;;1.90;1.70;;;24.70;58.70;;;;;;6178095;23;20441;-85
2021/07/12 05:42:10;;;;;;;1.60;1.50;;;24.70;58.60;;;;;;6177742;23;20406;-85
2021/07/12 05:44:43;;;;;;;1.60;1.50;;;24.70;58.70;;;;;;6179620;23;20382;-85
2021/07/12 05:47:24;;;;;;;1.50;1.40;;;24.80;58.70;;;;;;6202706;23;20406;-85
2021/07/12 05:50:00;;;;;;;2.40;2.20;;;24.80;58.70;;;;;;6287518;22;20379;-85
2021/07/12 05:52:57;;;;;;;1.70;1.60;;;24.70;58.60;;;;;;6301747;22;20401;-84
2021/07/12 05:56:04;;;;;;;2.10;1.90;;;24.80;58.60;;;;;;6298656;22;20380;-85
2021/07/12 05:58:35;;;;;;;1.63;1.53;;;24.80;58.60;;;;;;6301517;22;20379;-85
2021/07/12 06:01:09;;;;;;;2.33;1.70;;;24.70;58.60;;;;;;6302156;22;20406;-85
2021/07/12 06:03:39;;;;;;;2.50;1.70;;;24.70;58.60;;;;;;6330989;22;20355;-85
2021/07/12 06:16:50;;;;;;;2.33;1.50;;;24.80;58.60;;;;;;6205135;23;20434;-85
2021/07/12 06:19:19;;;;;;;2.40;1.50;;;24.70;58.60;;;;;;6187081;23;20434;-83
2021/07/12 06:21:50;;;;;;;1.50;1.40;;;24.70;58.70;;;;;;6187978;23;20439;-83
2021/07/12 06:24:43;;;;;;;3.10;1.90;;;24.80;58.80;;;;;;6212733;23;20410;-83
2021/07/12 06:27:22;;;;;;;2.30;1.80;;;24.80;58.70;;;;;;6185519;23;20987;-83
2021/07/12 06:30:10;;;;;;;1.60;1.50;;;24.90;58.70;;;;;;6184897;23;20403;-83
2021/07/12 06:32:39;;;;;;;1.70;1.60;;;24.90;58.70;;;;;;6183075;23;20379;-83
2021/07/12 06:35:10;;;;;;;2.60;1.80;;;25.00;58.80;;;;;;6183395;23;20440;-83
2021/07/12 06:37:42;;;;;;;1.87;1.60;;;25.00;58.70;;;;;;6162725;23;20372;-84
2021/07/12 06:40:13;;;;;;;1.97;1.77;;;25.00;58.70;;;;;;6185363;23;20355;-83
2021/07/12 06:42:42;;;;;;;2.10;1.50;;;25.00;58.70;;;;;;6210860;23;20387;-83
2021/07/12 06:45:12;;;;;;;1.57;1.47;;;25.00;58.60;;;;;;6206927;23;20375;-82
2021/07/12 06:47:57;;;;;;;4.00;1.70;;;25.00;58.60;;;;;;6182043;23;20415;-82
2021/07/12 06:50:26;;;;;;;1.67;1.57;;;25.10;58.60;;;;;;6210827;23;20379;-82
2021/07/12 06:53:28;;;;;;;2.30;1.80;;;25.10;58.60;;;;;;6184895;23;20390;-83
2021/07/12 06:56:12;;;;;;;1.70;1.60;;;25.10;58.60;;;;;;6209982;23;20380;-82
2021/07/12 06:58:43;;;;;;;1.77;1.53;;;25.10;58.60;;;;;;6255472;22;20375;-82
2021/07/12 07:04:41;;;;;;;1.67;1.57;;;25.20;58.60;;;;;;6311616;22;20391;-84
2021/07/12 07:07:10;;;;;;;1.40;1.23;;;25.10;58.60;;;;;;6307600;22;20419;-84
2021/07/12 07:09:36;;;;;;;2.33;1.63;;;25.20;58.60;;;;;;6307657;22;20376;-84
2021/07/12 07:12:17;;;;;;;1.97;1.40;;;25.20;58.60;;;;;;6307044;22;20391;-84
2021/07/12 07:22:06;;;;;;;1.70;1.60;;;25.20;58.50;;;;;;6207360;23;20453;-82
2021/07/12 07:24:32;;;;;;;2.03;1.73;;;25.20;58.50;;;;;;6183339;23;20379;-83
2021/07/12 07:27:01;;;;;;;1.67;1.57;;;25.20;58.60;;;;;;6182968;23;20403;-83
2021/07/12 07:29:29;;;;;;;1.43;1.33;;;25.20;58.50;;;;;;6183950;23;20379;-82
2021/07/12 07:32:01;;;;;;;1.83;1.60;;;25.20;58.50;;;;;;6182183;23;20379;-83
2021/07/12 07:34:53;;;;;;;1.53;1.43;;;25.30;58.50;;;;;;6182565;23;20363;-83
2021/07/12 07:37:29;;;;;;;1.60;1.50;;;25.30;58.50;;;;;;6208153;23;20394;-83
2021/07/12 07:47:24;;;;;;;1.60;1.40;;;25.30;58.40;;;;;;6094260;23;20406;-83
2021/07/12 07:53:20;;;;;;;2.10;1.90;;;25.30;58.50;;;;;;6095732;23;20416;-83
2021/07/12 08:06:34;;;;;;;1.60;1.27;;;25.30;58.50;;;;;;6182166;23;20354;-83
2021/07/12 08:37:28;;;;;;;1.60;1.50;;;25.30;58.50;;;;;;6065742;23;21046;-82
2021/07/12 08:44:21;;;;;;;2.40;1.33;;;25.30;58.60;;;;;;6006486;24;20514;-84
2021/07/12 08:58:47;;;;;;;1.87;1.37;;;25.30;58.50;;;;;;6268931;22;20461;-83
2021/07/12 09:04:32;;;;;;;1.40;1.30;;;25.40;58.60;;;;;;6302215;22;20386;-84
2021/07/12 09:07:12;;;;;;;1.50;1.33;;;25.40;58.60;;;;;;6300179;22;20438;-83
2021/07/12 09:10:34;;;;;;;1.20;1.10;;;25.40;58.60;;;;;;6301378;22;20453;-82
2021/07/12 09:17:15;;;;;;;1.60;1.50;;;25.40;58.50;;;;;;6208564;23;20339;-83
2021/07/12 09:20:15;;;;;;;1.50;1.33;;;25.40;58.50;;;;;;6182760;23;20399;-84
2021/07/12 09:29:36;;;;;;;1.60;1.50;;;25.40;58.60;;;;;;6163168;23;20379;-84
2021/07/12 09:46:32;;;;;;;1.60;1.50;;;25.50;58.60;;;;;;6335744;22;20367;-83
2021/07/12 09:49:16;;;;;;;2.30;1.60;;;25.50;58.60;;;;;;6295559;22;20975;-84
2021/07/12 10:02:51;;;;;;;2.67;1.60;;;25.50;58.70;;;;;;6117692;23;20698;-81
2021/07/12 10:12:40;;;;;;;1.70;1.60;;;25.40;58.60;;;;;;6114280;23;20417;-84
2021/07/12 10:18:29;;;;;;;1.67;1.47;;;25.50;58.70;;;;;;6114808;23;20370;-84
2021/07/12 10:20:55;;;;;;;1.60;1.50;;;25.50;58.70;;;;;;6089401;23;20868;-83
2021/07/12 10:23:27;;;;;;;1.97;1.77;;;25.50;58.60;;;;;;6089509;23;20445;-83
2021/07/12 10:26:02;;;;;;;1.77;1.67;;;25.50;58.60;;;;;;6086965;23;20377;-83
2021/07/12 10:32:14;;;;;;;1.90;1.70;;;25.50;58.50;;;;;;6210852;22;20358;-83
2021/07/12 10:34:47;;;;;;;1.83;1.63;;;25.50;58.50;;;;;;6296878;22;20402;-82
2021/07/12 10:44:10;;;;;;;2.00;1.80;;;25.50;58.50;;;;;;6201194;23;20414;-82
2021/07/12 11:17:55;;;;;;;1.80;1.70;;;25.50;58.40;;;;;;5995990;23;20441;-85
2021/07/12 11:28:18;;;;;;;;;;;;;;;;;;;;;
2021/07/12 11:30:46;;;;;;;2.40;2.07;;;25.50;58.40;;;;;;6013195;23;20448;-85
2021/07/12 11:33:50;;;;;;;2.17;1.97;;;25.50;58.50;;;;;;6024940;23;20882;-83
2021/07/12 11:37:04;;;;;;;2.10;1.80;;;25.50;58.40;;;;;;6010104;23;20833;-84
2021/07/12 11:40:08;;;;;;;;;;;;;;;;;;;;;
2021/07/12 11:54:06;;;;;;;;;;;;;;;;;;;;;
2021/07/12 12:00:47;;;;;;;;;;;;;;;;;;;;;
2021/07/12 12:11:14;;;;;;;;;;;;;;;;;;;;;
2021/07/12 12:21:06;;;;;;;;;;;;;;;;;;;;;
2021/07/12 13:13:12;;;;;;;;;;;;;;;;;;;;;
2021/07/12 13:26:52;;;;;;;2.07;1.93;;;25.20;59.00;;;;;;5918046;24;20901;-85
2021/07/12 13:54:01;;;;;;;2.50;2.30;;;25.40;58.80;;;;;;6026423;23;20391;-84
2021/07/12 13:57:18;;;;;;;2.10;2.00;;;25.40;58.80;;;;;;5892166;24;20438;-85
2021/07/12 14:07:14;;;;;;;5.73;2.30;;;25.40;58.80;;;;;;6009722;23;20392;-87
2021/07/12 14:31:08;;;;;;;6.23;2.20;;;25.50;58.70;;;;;;6016541;23;20379;-87
2021/07/12 14:37:53;;;;;;;3.10;2.50;;;25.50;59.20;;;;;;6102236;23;20399;-87
2021/07/12 15:00:28;;;;;;;2.60;2.40;;;25.50;58.60;;;;;;6051275;23;20367;-87
2021/07/12 15:10:55;;;;;;;;;;;;;;;;;;;;;
2021/07/12 15:41:18;;;;;;;2.70;2.50;;;25.60;58.60;;;;;;5967084;23;20793;-87
2021/07/12 15:50:50;;;;;;;2.93;2.47;;;25.60;58.50;;;;;;5991202;23;20418;-86
2021/07/12 15:53:24;;;;;;;3.10;2.83;;;25.50;59.00;;;;;;5975685;24;20421;-86
2021/07/12 15:56:07;;;;;;;4.00;3.13;;;25.60;58.60;;;;;;6002358;23;20388;-86
2021/07/12 16:04:46;;;;;;;2.77;2.57;;;25.60;58.40;;;;;;6051547;23;20366;-86
2021/07/12 16:08:02;;;;;;;;;;;;;;;;;;;;;
2021/07/12 16:20:35;;;;;;;2.70;2.50;;;25.60;58.50;;;;;;6079970;23;20366;-86
2021/07/12 16:23:11;;;;;;;3.07;2.87;;;25.60;58.50;;;;;;6089794;23;20406;-86
2021/07/12 16:26:08;;;;;;;2.77;2.57;;;25.60;58.50;;;;;;6108991;23;20385;-86
2021/07/12 16:29:04;;;;;;;2.90;2.70;;;25.60;58.40;;;;;;6050772;23;20434;-86
2021/07/12 16:32:02;;;;;;;2.70;2.50;;;25.70;58.50;;;;;;6015996;23;20388;-86
2021/07/12 16:34:41;;;;;;;2.83;2.63;;;25.60;58.40;;;;;;6113924;23;20382;-87
2021/07/12 16:51:25;;;;;;;2.50;2.10;;;25.60;58.40;;;;;;6081100;23;20956;-84
2021/07/12 16:54:26;;;;;;;2.73;2.40;;;25.60;58.50;;;;;;6042329;23;20458;-84
2021/07/12 16:57:42;;;;;;;;;;;;;;;;;;;;;
2021/07/12 17:00:32;;;;;;;2.40;2.20;;;25.60;58.40;;;;;;6078062;23;20383;-85
2021/07/12 17:10:21;;;;;;;2.87;2.63;;;25.60;58.40;;;;;;6151389;23;20407;-84
2021/07/12 17:16:45;;;;;;;2.60;2.40;;;25.60;58.40;;;;;;6089590;23;20395;-84
2021/07/12 17:19:11;;;;;;;2.80;2.60;;;25.60;58.40;;;;;;6095010;23;20382;-83
2021/07/12 17:21:40;;;;;;;2.43;2.23;;;25.60;58.40;;;;;;6166523;23;20417;-85
2021/07/12 17:24:06;;;;;;;2.97;2.67;;;25.60;58.40;;;;;;6229431;23;20378;-83
2021/07/12 17:26:35;;;;;;;3.20;2.27;;;25.60;58.40;;;;;;6230524;23;20374;-82
2021/07/12 17:29:07;;;;;;;2.50;2.20;;;25.60;58.40;;;;;;6234447;23;20955;-83
2021/07/12 17:31:46;;;;;;;2.30;2.10;;;25.60;58.30;;;;;;6234194;23;20374;-82
2021/07/12 17:34:22;;;;;;;2.73;2.53;;;25.60;58.30;;;;;;6240024;23;20381;-82
2021/07/12 17:36:51;;;;;;;3.90;2.20;;;25.60;58.30;;;;;;6236904;23;20398;-82
2021/07/12 17:39:26;;;;;;;2.73;2.50;;;25.60;58.30;;;;;;6228981;23;20378;-81
2021/07/12 17:41:55;;;;;;;2.70;2.50;;;25.60;58.30;;;;;;6300440;22;20387;-81
2021/07/12 17:44:24;;;;;;;2.47;2.27;;;25.60;58.30;;;;;;6304452;22;20435;-81
2021/07/12 17:46:55;;;;;;;2.70;2.50;;;25.60;58.30;;;;;;6304068;22;20383;-81
2021/07/12 17:49:24;;;;;;;2.37;2.17;;;25.60;58.30;;;;;;6304483;22;20367;-81
2021/07/12 17:51:53;;;;;;;2.77;2.27;;;25.60;58.30;;;;;;6303701;22;20417;-81
2021/07/12 17:54:30;;;;;;;;;;;;;;;;;;;;;
2021/07/12 17:56:56;;;;;;;3.03;2.73;;;25.60;58.30;;;;;;6330870;22;20378;-81
2021/07/12 17:59:27;;;;;;;2.60;2.40;;;25.60;58.30;;;;;;6302423;22;20371;-81
2021/07/12 18:02:19;;;;;;;2.67;2.47;;;25.60;58.30;;;;;;6300575;22;20167;-81
2021/07/12 18:04:59;;;;;;;2.40;2.20;;;25.60;58.30;;;;;;6299184;22;20411;-81
2021/07/12 18:07:38;;;;;;;2.20;2.00;;;25.60;58.30;;;;;;6300725;22;20487;-81
2021/07/12 18:10:15;;;;;;;2.40;2.20;;;25.50;58.30;;;;;;6300989;22;20368;-81
2021/07/12 18:13:09;;;;;;;2.30;2.07;;;25.50;58.30;;;;;;6299411;22;20384;-82
2021/07/12 18:15:36;;;;;;;2.30;2.10;;;25.50;58.30;;;;;;6314281;22;20375;-82
2021/07/12 18:18:02;;;;;;;2.33;2.13;;;25.40;58.30;;;;;;6327319;22;20488;-82
2021/07/12 18:20:31;;;;;;;2.63;2.10;;;25.50;58.40;;;;;;6327460;22;20383;-82
2021/07/12 18:23:00;;;;;;;2.90;2.70;;;25.50;58.40;;;;;;6299398;22;20413;-82
2021/07/12 18:25:28;;;;;;;2.40;2.20;;;25.40;58.30;;;;;;6327041;22;20983;-82
2021/07/12 18:27:54;;;;;;;2.33;2.13;;;25.40;58.30;;;;;;6299695;22;20423;-82
2021/07/12 18:30:20;;;;;;;2.83;2.10;;;25.40;58.30;;;;;;6300041;22;20387;-82
2021/07/12 18:32:48;;;;;;;2.20;2.00;;;25.40;58.30;;;;;;6299791;22;20145;-82
2021/07/12 18:35:16;;;;;;;2.87;1.97;;;25.40;58.30;;;;;;6299758;22;20441;-82
2021/07/12 18:37:48;;;;;;;2.53;2.30;;;25.40;58.30;;;;;;6299936;22;20391;-82
2021/07/12 18:40:20;;;;;;;2.30;2.00;;;25.40;58.40;;;;;;6303916;22;20379;-83
2021/07/12 18:42:46;;;;;;;2.37;2.17;;;25.40;58.40;;;;;;6301698;22;20387;-83
2021/07/12 18:45:21;;;;;;;2.70;2.50;;;25.40;58.40;;;;;;6299989;22;20407;-83
2021/07/12 18:47:53;;;;;;;2.47;2.27;;;25.40;58.30;;;;;;6299859;22;20414;-82
2021/07/12 18:57:04;;;;;;;2.37;2.17;;;25.30;58.30;;;;;;6203464;22;20365;-82
2021/07/12 18:59:31;;;;;;;3.20;2.30;;;25.30;58.50;;;;;;6179074;23;20414;-82
2021/07/12 19:02:09;;;;;;;2.60;2.40;;;25.30;58.40;;;;;;6177726;23;20375;-82
2021/07/12 19:04:36;;;;;;;2.13;1.93;;;25.30;58.40;;;;;;6177336;23;20450;-82
2021/07/12 19:07:04;;;;;;;3.47;2.20;;;25.30;58.40;;;;;;6176412;23;20383;-82
2021/07/12 19:09:32;;;;;;;3.20;2.77;;;25.30;58.40;;;;;;6177091;23;20478;-82
2021/07/12 19:11:58;;;;;;;2.30;2.07;;;25.30;58.40;;;;;;6201830;23;20383;-84
2021/07/12 19:14:24;;;;;;;2.20;2.00;;;25.30;58.40;;;;;;6177108;23;20494;-82
2021/07/12 19:20:25;;;;;;;2.23;2.03;;;25.30;58.40;;;;;;6201740;23;20405;-82
2021/07/12 19:22:51;;;;;;;2.57;2.23;;;25.30;58.50;;;;;;6177592;23;20382;-82
2021/07/12 19:25:24;;;;;;;2.60;2.40;;;25.20;58.50;;;;;;6201133;23;20378;-82
2021/07/12 19:27:59;;;;;;;2.63;2.43;;;25.20;58.40;;;;;;6177367;23;20901;-82
2021/07/12 19:30:29;;;;;;;2.57;2.10;;;25.20;58.40;;;;;;6252177;22;20374;-82
2021/07/12 19:33:01;;;;;;;2.50;2.30;;;25.20;58.40;;;;;;6300290;22;20443;-82
2021/07/12 19:35:28;;;;;;;2.40;2.20;;;25.20;58.40;;;;;;6300004;22;20401;-81
2021/07/12 19:37:59;;;;;;;2.40;2.20;;;25.20;58.50;;;;;;6300711;22;20383;-82
2021/07/12 19:40:30;;;;;;;2.57;2.03;;;25.20;58.40;;;;;;6326331;22;20451;-81
2021/07/12 19:43:01;;;;;;;2.60;2.40;;;25.20;58.40;;;;;;6327222;22;20386;-82
2021/07/12 19:45:28;;;;;;;2.37;2.17;;;25.20;58.40;;;;;;6327497;22;20444;-81
2021/07/12 19:48:12;;;;;;;2.70;2.50;;;25.20;58.40;;;;;;6300999;22;20427;-82
2021/07/12 19:50:38;;;;;;;2.17;1.97;;;25.20;58.40;;;;;;6299623;22;20451;-82
2021/07/12 19:53:04;;;;;;;2.27;2.07;;;25.20;58.40;;;;;;6300902;22;20380;-82
2021/07/12 19:55:31;;;;;;;2.37;2.17;;;25.20;58.40;;;;;;6300258;22;20169;-82
2021/07/12 19:57:59;;;;;;;2.27;2.07;;;25.20;58.50;;;;;;6301125;22;20387;-82
2021/07/12 20:00:38;;;;;;;3.90;2.33;;;25.20;58.40;;;;;;6300806;22;20394;-82
2021/07/12 20:03:10;;;;;;;1.97;1.87;;;25.20;58.40;;;;;;6299890;22;20364;-82
2021/07/12 20:05:42;;;;;;;2.40;2.20;;;25.20;58.50;;;;;;6300202;22;20391;-83
2021/07/12 20:08:20;;;;;;;2.73;2.43;;;25.20;58.40;;;;;;6299684;22;20827;-84
2021/07/12 20:10:47;;;;;;;2.67;2.47;;;25.20;58.40;;;;;;6326246;22;20371;-81
2021/07/12 20:13:23;;;;;;;2.30;2.10;;;25.20;58.50;;;;;;6305348;22;20800;-81
2021/07/12 20:16:11;;;;;;;2.40;2.20;;;25.20;58.50;;;;;;6307489;22;20362;-82
2021/07/12 20:18:37;;;;;;;1.93;1.73;;;25.20;58.40;;;;;;6300897;22;20376;-81
2021/07/12 20:21:06;;;;;;;2.17;1.97;;;25.10;58.40;;;;;;6326388;22;20449;-81
2021/07/12 20:23:34;;;;;;;2.27;2.07;;;25.10;58.40;;;;;;6330812;22;20961;-82
2021/07/12 20:26:03;;;;;;;2.90;2.60;;;25.20;58.50;;;;;;6304969;22;20379;-82
2021/07/12 20:28:35;;;;;;;1.93;1.83;;;25.10;58.40;;;;;;6304618;22;20414;-82
2021/07/12 20:31:02;;;;;;;2.23;2.03;;;25.20;58.50;;;;;;6305984;22;20375;-81
2021/07/12 20:33:31;;;;;;;2.30;2.10;;;25.20;58.50;;;;;;6308647;22;20352;-82
2021/07/12 20:36:11;;;;;;;2.50;2.30;;;25.10;58.40;;;;;;6334308;22;20371;-84
2021/07/12 20:38:50;;;;;;;2.20;2.00;;;25.20;58.50;;;;;;6310242;22;20443;-84
2021/07/12 20:41:19;;;;;;;2.53;2.33;;;25.20;58.50;;;;;;6309477;22;20368;-87
2021/07/12 20:43:45;;;;;;;2.30;2.10;;;25.10;58.50;;;;;;6307959;22;20399;-83
2021/07/12 20:46:14;;;;;;;2.77;2.20;;;25.10;58.50;;;;;;6303877;22;20398;-85
2021/07/12 20:48:50;;;;;;;2.50;2.30;;;25.10;58.50;;;;;;6309269;22;20434;-85
2021/07/12 20:51:34;;;;;;;2.37;2.17;;;25.10;58.50;;;;;;6335344;22;20367;-83
2021/07/12 20:54:06;;;;;;;2.57;2.37;;;25.10;58.50;;;;;;6304518;22;20384;-83
2021/07/12 20:56:33;;;;;;;2.40;2.20;;;25.10;58.50;;;;;;6306532;22;20408;-84
2021/07/12 20:59:07;;;;;;;2.20;2.00;;;25.10;58.50;;;;;;6330840;22;20387;-84
2021/07/12 21:01:37;;;;;;;2.40;2.00;;;25.10;58.50;;;;;;6303126;22;20382;-84
2021/07/12 21:04:10;;;;;;;2.70;2.50;;;25.10;58.50;;;;;;6302944;22;20394;-83
2021/07/12 21:06:44;;;;;;;1.83;1.70;;;25.10;58.50;;;;;;6303571;22;20379;-84
2021/07/12 21:09:13;;;;;;;1.93;1.80;;;25.10;58.60;;;;;;6302724;22;20439;-85
2021/07/12 21:11:44;;;;;;;2.50;2.30;;;25.00;58.50;;;;;;6302659;22;20382;-84
2021/07/12 21:14:15;;;;;;;3.73;1.80;;;25.10;58.60;;;;;;6303831;22;20383;-84
2021/07/12 21:16:43;;;;;;;3.23;2.40;;;25.10;58.60;;;;;;6303192;22;20399;-84
2021/07/12 21:19:14;;;;;;;2.03;1.83;;;25.10;58.60;;;;;;6303474;22;20376;-84
2021/07/12 21:21:42;;;;;;;2.27;2.10;;;25.10;58.60;;;;;;6330116;22;20344;-84
2021/07/12 21:24:09;;;;;;;2.30;2.10;;;25.10;58.60;;;;;;6302327;22;20379;-83
2021/07/12 21:26:41;;;;;;;2.00;1.80;;;25.10;58.60;;;;;;6330653;22;20368;-84
2021/07/12 21:29:09;;;;;;;2.10;1.90;;;25.10;58.60;;;;;;6302377;22;20415;-84
2021/07/12 21:31:45;;;;;;;2.20;2.00;;;25.10;58.60;;;;;;6302589;22;20367;-84
2021/07/12 21:34:38;;;;;;;2.40;1.90;;;25.10;58.60;;;;;;6326314;22;20390;-84
2021/07/12 21:37:14;;;;;;;2.67;2.47;;;25.10;58.60;;;;;;6304920;22;20372;-84
2021/07/12 21:39:44;;;;;;;2.47;2.20;;;25.10;58.60;;;;;;6306916;22;20391;-82
2021/07/12 21:42:12;;;;;;;2.30;2.10;;;25.10;58.70;;;;;;6308345;22;20387;-83
2021/07/12 21:44:58;;;;;;;2.57;2.37;;;25.10;58.70;;;;;;6333193;22;20352;-82
2021/07/12 21:47:38;;;;;;;3.13;2.40;;;25.10;58.60;;;;;;6306459;22;20441;-82
2021/07/12 21:50:37;;;;;;;3.57;2.43;;;25.00;58.60;;;;;;6308358;22;20372;-82
2021/07/12 21:53:04;;;;;;;2.50;2.30;;;25.10;58.70;;;;;;6303817;22;20513;-82
2021/07/12 21:55:30;;;;;;;2.70;2.23;;;25.00;58.60;;;;;;6305531;22;20374;-81
2021/07/12 21:57:59;;;;;;;2.33;2.13;;;25.10;58.70;;;;;;6332696;22;20352;-82
2021/07/12 22:00:31;;;;;;;2.60;2.40;;;25.10;58.70;;;;;;6305645;22;20443;-82
2021/07/12 22:03:07;;;;;;;1.97;1.87;;;25.10;58.70;;;;;;6306006;22;20352;-82
2021/07/12 22:05:39;;;;;;;2.10;1.90;;;25.10;58.70;;;;;;6304558;22;20398;-81
2021/07/12 22:08:23;;;;;;;2.30;2.10;;;25.10;58.70;;;;;;6332358;22;20407;-82
2021/07/12 22:10:59;;;;;;;2.00;1.80;;;25.10;58.70;;;;;;6305260;22;20430;-82
2021/07/12 22:13:32;;;;;;;1.87;1.77;;;25.10;58.70;;;;;;6305244;22;20390;-82
2021/07/12 22:16:04;;;;;;;2.63;2.10;;;25.10;58.70;;;;;;6305718;22;20383;-82
2021/07/12 22:18:33;;;;;;;2.47;2.27;;;25.10;58.70;;;;;;6304258;22;20387;-82